sensor_id;sensor_type;location;lat;lon;timestamp;pressure;altitude;pressure_sealevel;temperature;humidity
69836;BME280;57132;51.972;4.450;2023-05-14T00:01:15;102079.56;;;10.97;100.00
69836;BME280;57132;51.972;4.450;2023-05-14T00:03:47;102079.47;;;10.99;100.00
69836;BME280;57132;51.972;4.450;2023-05-14T00:06:32;102074.22;;;10.97;100.00
69836;BME280;57132;51.972;4.450;2023-05-14T00:09:06;102073.50;;;10.94;100.00
69836;BME280;57132;51.972;4.450;2023-05-14T00:11:31;102067.47;;;10.90;100.00
69836;BME280;57132;51.972;4.450;2023-05-14T00:14:03;102059.34;;;10.92;100.00
69836;BME280;57132;51.972;4.450;2023-05-14T00:16:30;102059.44;;;10.90;100.00
69836;BME280;57132;51.972;4.450;2023-05-14T00:19:04;102045.47;;;10.85;100.00
69836;BME280;57132;51.972;4.450;2023-05-14T00:21:30;102049.06;;;10.84;100.00
69836;BME280;57132;51.972;4.450;2023-05-14T00:23:56;102053.69;;;10.80;100.00
69836;BME280;57132;51.972;4.450;2023-05-14T00:26:24;102051.94;;;10.81;100.00
69836;BME280;57132;51.972;4.450;2023-05-14T00:28:49;102040.59;;;10.76;100.00
69836;BME280;57132;51.972;4.450;2023-05-14T00:31:15;102053.00;;;10.77;100.00
69836;BME280;57132;51.972;4.450;2023-05-14T00:33:40;102042.41;;;10.75;100.00
69836;BME280;57132;51.972;4.450;2023-05-14T00:36:06;102038.06;;;10.73;100.00
69836;BME280;57132;51.972;4.450;2023-05-14T00:38:32;102038.25;;;10.70;100.00
69836;BME280;57132;51.972;4.450;2023-05-14T00:40:57;102037.56;;;10.66;100.00
69836;BME280;57132;51.972;4.450;2023-05-14T00:43:22;102035.13;;;10.62;100.00
69836;BME280;57132;51.972;4.450;2023-05-14T00:45:51;102037.81;;;10.62;100.00
69836;BME280;57132;51.972;4.450;2023-05-14T00:48:17;102047.69;;;10.59;100.00
69836;BME280;57132;51.972;4.450;2023-05-14T00:50:42;102043.44;;;10.55;100.00
69836;BME280;57132;51.972;4.450;2023-05-14T00:53:08;102038.44;;;10.49;100.00
69836;BME280;57132;51.972;4.450;2023-05-14T00:55:38;102040.41;;;10.46;100.00
69836;BME280;57132;51.972;4.450;2023-05-14T00:58:11;102043.28;;;10.41;100.00
69836;BME280;57132;51.972;4.450;2023-05-14T01:00:38;102038.97;;;10.39;100.00
69836;BME280;57132;51.972;4.450;2023-05-14T01:03:04;102040.78;;;10.38;100.00
69836;BME280;57132;51.972;4.450;2023-05-14T01:06:10;102041.06;;;10.32;100.00
69836;BME280;57132;51.972;4.450;2023-05-14T01:08:49;102040.38;;;10.28;100.00
69836;BME280;57132;51.972;4.450;2023-05-14T01:11:26;102036.97;;;10.25;100.00
69836;BME280;57132;51.972;4.450;2023-05-14T01:14:21;102038.91;;;10.21;100.00
69836;BME280;57132;51.972;4.450;2023-05-14T01:16:51;102032.88;;;10.18;100.00
69836;BME280;57132;51.972;4.450;2023-05-14T01:19:26;102035.63;;;10.16;100.00
69836;BME280;57132;51.972;4.450;2023-05-14T01:21:53;102037.50;;;10.14;100.00
69836;BME280;57132;51.972;4.450;2023-05-14T01:24:18;102041.19;;;10.12;100.00
69836;BME280;57132;51.972;4.450;2023-05-14T01:26:45;102034.19;;;10.09;100.00
69836;BME280;57132;51.972;4.450;2023-05-14T01:29:22;102034.34;;;10.06;100.00
69836;BME280;57132;51.972;4.450;2023-05-14T01:32:06;102040.56;;;10.06;100.00
69836;BME280;57132;51.972;4.450;2023-05-14T01:34:35;102034.41;;;10.04;100.00
69836;BME280;57132;51.972;4.450;2023-05-14T01:37:07;102026.41;;;10.04;100.00
69836;BME280;57132;51.972;4.450;2023-05-14T01:39:36;102033.56;;;10.04;100.00
69836;BME280;57132;51.972;4.450;2023-05-14T01:42:02;102019.28;;;10.05;100.00
69836;BME280;57132;51.972;4.450;2023-05-14T01:44:28;102022.88;;;10.04;100.00
69836;BME280;57132;51.972;4.450;2023-05-14T01:46:54;102020.22;;;10.04;100.00
69836;BME280;57132;51.972;4.450;2023-05-14T01:49:20;102020.22;;;10.04;100.00
69836;BME280;57132;51.972;4.450;2023-05-14T01:51:45;102014.13;;;10.02;100.00
69836;BME280;57132;51.972;4.450;2023-05-14T01:54:10;102014.25;;;9.99;100.00
69836;BME280;57132;51.972;4.450;2023-05-14T01:56:36;102004.44;;;9.99;100.00
69836;BME280;57132;51.972;4.450;2023-05-14T01:59:01;102005.41;;;9.98;100.00
69836;BME280;57132;51.972;4.450;2023-05-14T02:01:26;102000.22;;;9.95;100.00
69836;BME280;57132;51.972;4.450;2023-05-14T02:03:52;101999.34;;;9.95;100.00
69836;BME280;57132;51.972;4.450;2023-05-14T02:06:17;102000.34;;;9.92;100.00
69836;BME280;57132;51.972;4.450;2023-05-14T02:08:42;101996.91;;;9.90;100.00
69836;BME280;57132;51.972;4.450;2023-05-14T02:11:07;101991.59;;;9.90;100.00
69836;BME280;57132;51.972;4.450;2023-05-14T02:13:33;101998.69;;;9.90;100.00
69836;BME280;57132;51.972;4.450;2023-05-14T02:15:58;102004.13;;;9.88;100.00
69836;BME280;57132;51.972;4.450;2023-05-14T02:18:23;102002.38;;;9.87;100.00
69836;BME280;57132;51.972;4.450;2023-05-14T02:20:49;102001.44;;;9.88;100.00
69836;BME280;57132;51.972;4.450;2023-05-14T02:23:14;101998.78;;;9.88;100.00
69836;BME280;57132;51.972;4.450;2023-05-14T02:25:39;102005.06;;;9.87;100.00
69836;BME280;57132;51.972;4.450;2023-05-14T02:28:05;101996.25;;;9.85;100.00
69836;BME280;57132;51.972;4.450;2023-05-14T02:30:30;101998.16;;;9.83;100.00
69836;BME280;57132;51.972;4.450;2023-05-14T02:32:56;101995.63;;;9.80;100.00
69836;BME280;57132;51.972;4.450;2023-05-14T02:35:21;101994.91;;;9.76;100.00
69836;BME280;57132;51.972;4.450;2023-05-14T02:37:47;101995.91;;;9.74;100.00
69836;BME280;57132;51.972;4.450;2023-05-14T02:40:12;101991.47;;;9.74;100.00
69836;BME280;57132;51.972;4.450;2023-05-14T02:42:38;101988.81;;;9.74;100.00
69836;BME280;57132;51.972;4.450;2023-05-14T02:45:04;101989.66;;;9.75;100.00
69836;BME280;57132;51.972;4.450;2023-05-14T02:47:29;101995.06;;;9.73;100.00
69836;BME280;57132;51.972;4.450;2023-05-14T02:49:54;101988.94;;;9.71;100.00
69836;BME280;57132;51.972;4.450;2023-05-14T02:52:20;101984.56;;;9.70;100.00
69836;BME280;57132;51.972;4.450;2023-05-14T02:54:45;101985.41;;;9.71;100.00
69836;BME280;57132;51.972;4.450;2023-05-14T02:57:10;101982.75;;;9.71;100.00
69836;BME280;57132;51.972;4.450;2023-05-14T02:59:36;101982.81;;;9.69;100.00
69836;BME280;57132;51.972;4.450;2023-05-14T03:02:01;101980.84;;;9.73;100.00
69836;BME280;57132;51.972;4.450;2023-05-14T03:04:26;101993.25;;;9.74;100.00
69836;BME280;57132;51.972;4.450;2023-05-14T03:06:52;101980.00;;;9.72;100.00
69836;BME280;57132;51.972;4.450;2023-05-14T03:09:18;101983.53;;;9.73;100.00
69836;BME280;57132;51.972;4.450;2023-05-14T03:11:44;101979.06;;;9.73;100.00
69836;BME280;57132;51.972;4.450;2023-05-14T03:14:09;101982.66;;;9.72;100.00
69836;BME280;57132;51.972;4.450;2023-05-14T03:16:35;101979.13;;;9.72;100.00
69836;BME280;57132;51.972;4.450;2023-05-14T03:19:00;101983.63;;;9.71;100.00
69836;BME280;57132;51.972;4.450;2023-05-14T03:21:25;101980.94;;;9.71;100.00
69836;BME280;57132;51.972;4.450;2023-05-14T03:23:51;101977.44;;;9.71;100.00
69836;BME280;57132;51.972;4.450;2023-05-14T03:26:17;101974.66;;;9.72;100.00
69836;BME280;57132;51.972;4.450;2023-05-14T03:28:43;101972.09;;;9.71;100.00
69836;BME280;57132;51.972;4.450;2023-05-14T03:31:08;101970.28;;;9.71;100.00
69836;BME280;57132;51.972;4.450;2023-05-14T03:33:33;101968.56;;;9.70;100.00
69836;BME280;57132;51.972;4.450;2023-05-14T03:35:59;101972.09;;;9.71;100.00
69836;BME280;57132;51.972;4.450;2023-05-14T03:38:24;101964.00;;;9.72;100.00
69836;BME280;57132;51.972;4.450;2023-05-14T03:40:50;101968.47;;;9.72;100.00
69836;BME280;57132;51.972;4.450;2023-05-14T03:43:15;101963.16;;;9.72;100.00
69836;BME280;57132;51.972;4.450;2023-05-14T03:45:40;101964.88;;;9.73;100.00
69836;BME280;57132;51.972;4.450;2023-05-14T03:48:06;101966.66;;;9.72;100.00
69836;BME280;57132;51.972;4.450;2023-05-14T03:50:31;101964.00;;;9.72;100.00
69836;BME280;57132;51.972;4.450;2023-05-14T03:52:56;101961.25;;;9.74;100.00
69836;BME280;57132;51.972;4.450;2023-05-14T03:55:23;101962.19;;;9.73;100.00
69836;BME280;57132;51.972;4.450;2023-05-14T03:57:48;101964.94;;;9.71;100.00
69836;BME280;57132;51.972;4.450;2023-05-14T04:00:14;101964.09;;;9.71;100.00
69836;BME280;57132;51.972;4.450;2023-05-14T04:02:39;101964.09;;;9.71;100.00
69836;BME280;57132;51.972;4.450;2023-05-14T04:05:05;101964.00;;;9.72;100.00
69836;BME280;57132;51.972;4.450;2023-05-14T04:07:30;101964.81;;;9.74;100.00
69836;BME280;57132;51.972;4.450;2023-05-14T04:09:56;101965.66;;;9.75;100.00
69836;BME280;57132;51.972;4.450;2023-05-14T04:12:21;101971.84;;;9.75;100.00
69836;BME280;57132;51.972;4.450;2023-05-14T04:14:46;101968.25;;;9.76;100.00
69836;BME280;57132;51.972;4.450;2023-05-14T04:17:12;101970.13;;;9.74;100.00
69836;BME280;57132;51.972;4.450;2023-05-14T04:19:37;101971.06;;;9.73;100.00
69836;BME280;57132;51.972;4.450;2023-05-14T04:22:03;101970.91;;;9.76;100.00
69836;BME280;57132;51.972;4.450;2023-05-14T04:24:29;101978.75;;;9.79;100.00
69836;BME280;57132;51.972;4.450;2023-05-14T04:26:54;101978.69;;;9.81;100.00
69836;BME280;57132;51.972;4.450;2023-05-14T04:29:19;101966.19;;;9.81;100.00
69836;BME280;57132;51.972;4.450;2023-05-14T04:31:45;101969.69;;;9.83;100.00
69836;BME280;57132;51.972;4.450;2023-05-14T04:34:10;101975.88;;;9.84;100.00
69836;BME280;57132;51.972;4.450;2023-05-14T04:36:36;101966.91;;;9.85;100.00
69836;BME280;57132;51.972;4.450;2023-05-14T04:39:01;101972.09;;;9.88;100.00
69836;BME280;57132;51.972;4.450;2023-05-14T04:41:26;101970.00;;;9.95;100.00
69836;BME280;57132;51.972;4.450;2023-05-14T04:43:55;101972.06;;;10.07;100.00
69836;BME280;57132;51.972;4.450;2023-05-14T04:46:20;101972.72;;;10.29;100.00
69836;BME280;57132;51.972;4.450;2023-05-14T04:48:46;101966.81;;;10.57;100.00
69836;BME280;57132;51.972;4.450;2023-05-14T04:51:12;101965.13;;;10.72;100.00
69836;BME280;57132;51.972;4.450;2023-05-14T04:53:37;101969.69;;;10.70;100.00
69836;BME280;57132;51.972;4.450;2023-05-14T04:56:03;101971.50;;;10.70;100.00
69836;BME280;57132;51.972;4.450;2023-05-14T04:58:28;101974.63;;;10.78;100.00
69836;BME280;57132;51.972;4.450;2023-05-14T05:00:55;101973.97;;;10.90;100.00
69836;BME280;57132;51.972;4.450;2023-05-14T05:03:21;101965.84;;;10.92;100.00
69836;BME280;57132;51.972;4.450;2023-05-14T05:05:47;101968.72;;;11.04;100.00
69836;BME280;57132;51.972;4.450;2023-05-14T05:08:12;101972.88;;;11.10;100.00
69836;BME280;57132;51.972;4.450;2023-05-14T05:10:37;101981.16;;;11.21;100.00
69836;BME280;57132;51.972;4.450;2023-05-14T05:13:04;101973.75;;;11.26;100.00
69836;BME280;57132;51.972;4.450;2023-05-14T05:15:29;101981.69;;;11.44;100.00
69836;BME280;57132;51.972;4.450;2023-05-14T05:17:55;101998.25;;;11.66;100.00
69836;BME280;57132;51.972;4.450;2023-05-14T05:20:20;101993.34;;;11.90;100.00
69836;BME280;57132;51.972;4.450;2023-05-14T05:22:45;101987.63;;;11.96;100.00
69836;BME280;57132;51.972;4.450;2023-05-14T05:25:11;101985.22;;;12.22;100.00
69836;BME280;57132;51.972;4.450;2023-05-14T05:27:37;101986.53;;;12.15;100.00
69836;BME280;57132;51.972;4.450;2023-05-14T05:30:03;101988.19;;;12.17;100.00
69836;BME280;57132;51.972;4.450;2023-05-14T05:32:28;101988.94;;;11.89;100.00
69836;BME280;57132;51.972;4.450;2023-05-14T05:34:54;101983.47;;;11.75;100.00
69836;BME280;57132;51.972;4.450;2023-05-14T05:37:19;101996.41;;;11.82;100.00
69836;BME280;57132;51.972;4.450;2023-05-14T05:39:44;101982.56;;;11.60;100.00
69836;BME280;57132;51.972;4.450;2023-05-14T05:42:11;101992.31;;;11.45;100.00
69836;BME280;57132;51.972;4.450;2023-05-14T05:44:36;101979.25;;;11.23;100.00
69836;BME280;57132;51.972;4.450;2023-05-14T05:47:02;101995.91;;;11.13;100.00
69836;BME280;57132;51.972;4.450;2023-05-14T05:49:27;101991.41;;;10.97;100.00
69836;BME280;57132;51.972;4.450;2023-05-14T05:51:53;101986.53;;;10.88;100.00
69836;BME280;57132;51.972;4.450;2023-05-14T05:54:18;101992.06;;;10.85;100.00
69836;BME280;57132;51.972;4.450;2023-05-14T05:56:43;101995.84;;;10.81;100.00
69836;BME280;57132;51.972;4.450;2023-05-14T05:59:08;101993.16;;;10.81;100.00
69836;BME280;57132;51.972;4.450;2023-05-14T06:01:34;101994.09;;;10.80;100.00
69836;BME280;57132;51.972;4.450;2023-05-14T06:03:59;101997.72;;;10.79;100.00
69836;BME280;57132;51.972;4.450;2023-05-14T06:06:24;101990.91;;;10.73;100.00
69836;BME280;57132;51.972;4.450;2023-05-14T06:08:50;102007.53;;;10.78;100.00
69836;BME280;57132;51.972;4.450;2023-05-14T06:11:15;102004.16;;;10.75;100.00
69836;BME280;57132;51.972;4.450;2023-05-14T06:13:41;102007.44;;;10.80;100.00
69836;BME280;57132;51.972;4.450;2023-05-14T06:16:06;102007.38;;;10.81;100.00
69836;BME280;57132;51.972;4.450;2023-05-14T06:18:31;102009.25;;;10.79;100.00
69836;BME280;57132;51.972;4.450;2023-05-14T06:20:57;102007.06;;;10.70;100.00
69836;BME280;57132;51.972;4.450;2023-05-14T06:23:24;102006.84;;;10.75;100.00
69836;BME280;57132;51.972;4.450;2023-05-14T06:25:50;102008.94;;;10.86;100.00
69836;BME280;57132;51.972;4.450;2023-05-14T06:28:15;102010.00;;;10.99;100.00
69836;BME280;57132;51.972;4.450;2023-05-14T06:30:41;102010.84;;;10.99;100.00
69836;BME280;57132;51.972;4.450;2023-05-14T06:33:06;102019.03;;;10.96;100.00
69836;BME280;57132;51.972;4.450;2023-05-14T06:35:31;102019.13;;;10.95;100.00
69836;BME280;57132;51.972;4.450;2023-05-14T06:37:58;102019.44;;;10.89;100.00
69836;BME280;57132;51.972;4.450;2023-05-14T06:40:24;102015.34;;;10.99;100.00
69836;BME280;57132;51.972;4.450;2023-05-14T06:42:49;102016.13;;;11.01;100.00
69836;BME280;57132;51.972;4.450;2023-05-14T06:45:14;102017.75;;;11.03;100.00
69836;BME280;57132;51.972;4.450;2023-05-14T06:47:39;102020.97;;;11.10;100.00
69836;BME280;57132;51.972;4.450;2023-05-14T06:50:05;102013.56;;;11.15;100.00
69836;BME280;57132;51.972;4.450;2023-05-14T06:52:31;102018.84;;;11.17;100.00
69836;BME280;57132;51.972;4.450;2023-05-14T06:54:56;102010.31;;;11.26;100.00
69836;BME280;57132;51.972;4.450;2023-05-14T06:57:21;102011.09;;;11.44;100.00
69836;BME280;57132;51.972;4.450;2023-05-14T06:59:46;102015.59;;;11.59;100.00
69836;BME280;57132;51.972;4.450;2023-05-14T07:02:12;102004.56;;;11.65;100.00
69836;BME280;57132;51.972;4.450;2023-05-14T07:04:37;101994.28;;;11.73;100.00
69836;BME280;57132;51.972;4.450;2023-05-14T07:07:02;101998.78;;;11.89;100.00
69836;BME280;57132;51.972;4.450;2023-05-14T07:09:28;102001.72;;;12.00;100.00
69836;BME280;57132;51.972;4.450;2023-05-14T07:11:54;101994.84;;;12.10;100.00
69836;BME280;57132;51.972;4.450;2023-05-14T07:14:20;101994.97;;;12.23;100.00
69836;BME280;57132;51.972;4.450;2023-05-14T07:16:45;101993.97;;;12.84;100.00
69836;BME280;57132;51.972;4.450;2023-05-14T07:19:11;102000.53;;;13.21;100.00
69836;BME280;57132;51.972;4.450;2023-05-14T07:21:36;101981.84;;;13.48;100.00
69836;BME280;57132;51.972;4.450;2023-05-14T07:24:01;101982.84;;;13.74;100.00
69836;BME280;57132;51.972;4.450;2023-05-14T07:26:27;101979.63;;;14.09;100.00
69836;BME280;57132;51.972;4.450;2023-05-14T07:28:52;101977.53;;;14.27;100.00
69836;BME280;57132;51.972;4.450;2023-05-14T07:31:17;101983.44;;;14.45;100.00
69836;BME280;57132;51.972;4.450;2023-05-14T07:33:43;101976.59;;;14.92;100.00
69836;BME280;57132;51.972;4.450;2023-05-14T07:36:08;101976.59;;;15.17;100.00
69836;BME280;57132;51.972;4.450;2023-05-14T07:38:33;101971.00;;;15.08;100.00
69836;BME280;57132;51.972;4.450;2023-05-14T07:40:59;101974.34;;;14.98;100.00
69836;BME280;57132;51.972;4.450;2023-05-14T07:43:24;101977.72;;;14.89;100.00
69836;BME280;57132;51.972;4.450;2023-05-14T07:45:50;101975.44;;;14.58;100.00
69836;BME280;57132;51.972;4.450;2023-05-14T07:48:15;101972.56;;;14.21;100.00
69836;BME280;57132;51.972;4.450;2023-05-14T07:50:40;101968.44;;;14.02;100.00
69836;BME280;57132;51.972;4.450;2023-05-14T07:53:06;101970.56;;;13.97;100.00
69836;BME280;57132;51.972;4.450;2023-05-14T07:55:31;101963.75;;;14.06;100.00
69836;BME280;57132;51.972;4.450;2023-05-14T07:57:57;101971.69;;;14.20;100.00
69836;BME280;57132;51.972;4.450;2023-05-14T08:00:22;101965.69;;;14.69;100.00
69836;BME280;57132;51.972;4.450;2023-05-14T08:02:47;101966.72;;;14.92;100.00
69836;BME280;57132;51.972;4.450;2023-05-14T08:05:13;101967.06;;;14.75;100.00
69836;BME280;57132;51.972;4.450;2023-05-14T08:07:38;101967.50;;;14.82;100.00
69836;BME280;57132;51.972;4.450;2023-05-14T08:10:04;101960.91;;;14.98;100.00
69836;BME280;57132;51.972;4.450;2023-05-14T08:12:31;101967.06;;;15.37;100.00
69836;BME280;57132;51.972;4.450;2023-05-14T08:14:56;101966.59;;;15.43;100.00
69836;BME280;57132;51.972;4.450;2023-05-14T08:17:22;101962.38;;;15.15;100.00
69836;BME280;57132;51.972;4.450;2023-05-14T08:19:47;101959.47;;;15.18;100.00
69836;BME280;57132;51.972;4.450;2023-05-14T08:22:13;101961.66;;;15.13;100.00
69836;BME280;57132;51.972;4.450;2023-05-14T08:24:40;101958.31;;;15.10;100.00
69836;BME280;57132;51.972;4.450;2023-05-14T08:27:07;101953.50;;;15.39;100.00
69836;BME280;57132;51.972;4.450;2023-05-14T08:29:32;101963.88;;;15.69;100.00
69836;BME280;57132;51.972;4.450;2023-05-14T08:31:57;101967.47;;;15.81;100.00
69836;BME280;57132;51.972;4.450;2023-05-14T08:34:23;101964.31;;;15.87;100.00
69836;BME280;57132;51.972;4.450;2023-05-14T08:36:48;101957.16;;;15.74;100.00
69836;BME280;57132;51.972;4.450;2023-05-14T08:39:14;101955.91;;;15.55;100.00
69836;BME280;57132;51.972;4.450;2023-05-14T08:41:39;101959.97;;;15.73;100.00
69836;BME280;57132;51.972;4.450;2023-05-14T08:44:08;101956.38;;;15.85;100.00
69836;BME280;57132;51.972;4.450;2023-05-14T08:46:37;101951.44;;;15.79;100.00
69836;BME280;57132;51.972;4.450;2023-05-14T08:51:59;101946.16;;;15.78;100.00
69836;BME280;57132;51.972;4.450;2023-05-14T08:54:25;101947.03;;;15.78;100.00
69836;BME280;57132;51.972;4.450;2023-05-14T08:56:52;101948.34;;;15.96;100.00
69836;BME280;57132;51.972;4.450;2023-05-14T08:59:18;101934.75;;;15.98;100.00
69836;BME280;57132;51.972;4.450;2023-05-14T09:01:47;101934.44;;;16.14;100.00
69836;BME280;57132;51.972;4.450;2023-05-14T09:04:14;101937.78;;;16.29;100.00
69836;BME280;57132;51.972;4.450;2023-05-14T09:06:41;101928.16;;;16.48;100.00
69836;BME280;57132;51.972;4.450;2023-05-14T09:09:08;101941.63;;;16.48;100.00
69836;BME280;57132;51.972;4.450;2023-05-14T09:11:40;101924.81;;;16.45;100.00
69836;BME280;57132;51.972;4.450;2023-05-14T09:14:05;101925.94;;;16.54;100.00
69836;BME280;57132;51.972;4.450;2023-05-14T09:16:33;101922.16;;;16.56;100.00
69836;BME280;57132;51.972;4.450;2023-05-14T09:19:00;101914.28;;;16.42;100.00
69836;BME280;57132;51.972;4.450;2023-05-14T09:21:27;101911.22;;;16.46;100.00
69836;BME280;57132;51.972;4.450;2023-05-14T09:23:53;101920.31;;;16.57;100.00
69836;BME280;57132;51.972;4.450;2023-05-14T09:26:22;101919.34;;;16.69;100.00
69836;BME280;57132;51.972;4.450;2023-05-14T09:28:52;101917.63;;;16.68;100.00
69836;BME280;57132;51.972;4.450;2023-05-14T09:31:18;101917.00;;;16.53;100.00
69836;BME280;57132;51.972;4.450;2023-05-14T09:33:49;101914.06;;;16.56;100.00
69836;BME280;57132;51.972;4.450;2023-05-14T09:36:15;101923.03;;;16.68;100.00
69836;BME280;57132;51.972;4.450;2023-05-14T09:38:41;101918.59;;;16.56;100.00
69836;BME280;57132;51.972;4.450;2023-05-14T09:41:09;101912.34;;;16.66;100.00
69836;BME280;57132;51.972;4.450;2023-05-14T09:43:35;101915.91;;;16.67;100.00
69836;BME280;57132;51.972;4.450;2023-05-14T09:46:00;101916.63;;;16.58;100.00
69836;BME280;57132;51.972;4.450;2023-05-14T09:48:25;101910.06;;;16.73;100.00
69836;BME280;57132;51.972;4.450;2023-05-14T09:50:51;101903.81;;;16.84;100.00
69836;BME280;57132;51.972;4.450;2023-05-14T09:53:16;101904.06;;;16.92;100.00
69836;BME280;57132;51.972;4.450;2023-05-14T09:55:42;101906.75;;;16.92;100.00
69836;BME280;57132;51.972;4.450;2023-05-14T09:58:07;101912.50;;;16.76;100.00
69836;BME280;57132;51.972;4.450;2023-05-14T10:00:34;101912.00;;;16.71;100.00
69836;BME280;57132;51.972;4.450;2023-05-14T10:03:04;101913.22;;;16.78;100.00
69836;BME280;57132;51.972;4.450;2023-05-14T10:05:32;101908.31;;;16.94;100.00
69836;BME280;57132;51.972;4.450;2023-05-14T10:08:47;101900.00;;;16.98;100.00
69836;BME280;57132;51.972;4.450;2023-05-14T10:10:49;101906.47;;;17.06;100.00
69836;BME280;57132;51.972;4.450;2023-05-14T10:13:19;101897.88;;;17.12;100.00
69836;BME280;57132;51.972;4.450;2023-05-14T10:15:47;101902.81;;;17.18;100.00
69836;BME280;57132;51.972;4.450;2023-05-14T10:18:18;101899.94;;;17.31;100.00
69836;BME280;57132;51.972;4.450;2023-05-14T10:20:47;101904.09;;;17.35;100.00
69836;BME280;57132;51.972;4.450;2023-05-14T10:23:13;101901.19;;;17.27;100.00
69836;BME280;57132;51.972;4.450;2023-05-14T10:25:39;101895.19;;;17.24;100.00
69836;BME280;57132;51.972;4.450;2023-05-14T10:28:05;101891.84;;;17.31;100.00
69836;BME280;57132;51.972;4.450;2023-05-14T10:30:30;101893.09;;;17.27;100.00
69836;BME280;57132;51.972;4.450;2023-05-14T10:33:12;101888.19;;;17.21;100.00
69836;BME280;57132;51.972;4.450;2023-05-14T10:38:34;101886.28;;;17.44;100.00
69836;BME280;57132;51.972;4.450;2023-05-14T10:41:04;101881.94;;;17.53;100.00
69836;BME280;57132;51.972;4.450;2023-05-14T10:43:35;101884.19;;;17.48;100.00
69836;BME280;57132;51.972;4.450;2023-05-14T10:46:01;101883.13;;;17.39;100.00
69836;BME280;57132;51.972;4.450;2023-05-14T10:48:27;101878.69;;;17.38;100.00
69836;BME280;57132;51.972;4.450;2023-05-14T10:50:55;101877.91;;;17.58;100.00
69836;BME280;57132;51.972;4.450;2023-05-14T10:53:32;101872.59;;;17.57;100.00
69836;BME280;57132;51.972;4.450;2023-05-14T10:56:05;101872.53;;;17.47;100.00
69836;BME280;57132;51.972;4.450;2023-05-14T10:58:31;101864.41;;;17.58;100.00
69836;BME280;57132;51.972;4.450;2023-05-14T11:00:59;101862.66;;;17.57;100.00
69836;BME280;57132;51.972;4.450;2023-05-14T11:03:28;101862.59;;;17.48;100.00
69836;BME280;57132;51.972;4.450;2023-05-14T11:05:55;101862.63;;;17.36;100.00
69836;BME280;57132;51.972;4.450;2023-05-14T11:08:21;101858.22;;;17.35;100.00
69836;BME280;57132;51.972;4.450;2023-05-14T11:10:48;101852.72;;;17.26;100.00
69836;BME280;57132;51.972;4.450;2023-05-14T11:13:14;101856.41;;;17.25;100.00
69836;BME280;57132;51.972;4.450;2023-05-14T11:15:41;101853.00;;;17.23;100.00
69836;BME280;57132;51.972;4.450;2023-05-14T11:18:12;101854.78;;;17.33;100.00
69836;BME280;57132;51.972;4.450;2023-05-14T11:20:37;101852.28;;;17.41;100.00
69836;BME280;57132;51.972;4.450;2023-05-14T11:23:02;101848.78;;;17.30;100.00
69836;BME280;57132;51.972;4.450;2023-05-14T11:25:28;101847.19;;;17.38;100.00
69836;BME280;57132;51.972;4.450;2023-05-14T11:27:54;101840.25;;;17.45;100.00
69836;BME280;57132;51.972;4.450;2023-05-14T11:30:22;101845.09;;;17.63;100.00
69836;BME280;57132;51.972;4.450;2023-05-14T11:32:48;101838.44;;;17.78;100.00
69836;BME280;57132;51.972;4.450;2023-05-14T11:35:15;101835.13;;;17.96;100.00
69836;BME280;57132;51.972;4.450;2023-05-14T11:37:42;101834.41;;;18.14;100.00
69836;BME280;57132;51.972;4.450;2023-05-14T11:40:15;101836.69;;;18.80;100.00
69836;BME280;57132;51.972;4.450;2023-05-14T11:42:40;101831.44;;;18.88;100.00
69836;BME280;57132;51.972;4.450;2023-05-14T11:45:06;101823.06;;;18.91;100.00
69836;BME280;57132;51.972;4.450;2023-05-14T11:47:35;101825.34;;;18.96;100.00
69836;BME280;57132;51.972;4.450;2023-05-14T11:50:00;101827.88;;;18.88;100.00
69836;BME280;57132;51.972;4.450;2023-05-14T11:52:25;101820.34;;;18.91;100.00
69836;BME280;57132;51.972;4.450;2023-05-14T11:54:51;101823.53;;;18.97;100.00
69836;BME280;57132;51.972;4.450;2023-05-14T11:57:20;101824.22;;;18.99;100.00
69836;BME280;57132;51.972;4.450;2023-05-14T11:59:46;101817.09;;;18.98;100.00
69836;BME280;57132;51.972;4.450;2023-05-14T12:02:16;101819.34;;;18.92;100.00
69836;BME280;57132;51.972;4.450;2023-05-14T12:04:42;101819.06;;;18.96;100.00
69836;BME280;57132;51.972;4.450;2023-05-14T12:07:12;101813.72;;;19.05;100.00
69836;BME280;57132;51.972;4.450;2023-05-14T12:09:44;101816.09;;;18.89;100.00
69836;BME280;57132;51.972;4.450;2023-05-14T12:12:15;101809.88;;;18.67;100.00
69836;BME280;57132;51.972;4.450;2023-05-14T12:14:41;101800.97;;;18.46;100.00
69836;BME280;57132;51.972;4.450;2023-05-14T12:17:18;101803.69;;;18.46;100.00
69836;BME280;57132;51.972;4.450;2023-05-14T12:19:46;101802.28;;;18.52;100.00
69836;BME280;57132;51.972;4.450;2023-05-14T12:22:18;101799.03;;;18.58;100.00
69836;BME280;57132;51.972;4.450;2023-05-14T12:24:55;101805.59;;;18.65;100.00
69836;BME280;57132;51.972;4.450;2023-05-14T12:27:22;101805.81;;;18.73;100.00
69836;BME280;57132;51.972;4.450;2023-05-14T12:29:49;101795.72;;;18.85;100.00
69836;BME280;57132;51.972;4.450;2023-05-14T12:32:17;101794.84;;;18.84;100.00
69836;BME280;57132;51.972;4.450;2023-05-14T12:34:43;101793.28;;;18.82;100.00
69836;BME280;57132;51.972;4.450;2023-05-14T12:37:09;101791.41;;;18.73;100.00
69836;BME280;57132;51.972;4.450;2023-05-14T12:39:34;101780.97;;;18.68;100.00
69836;BME280;57132;51.972;4.450;2023-05-14T12:42:01;101790.34;;;18.64;100.00
69836;BME280;57132;51.972;4.450;2023-05-14T12:44:26;101783.41;;;18.61;100.00
69836;BME280;57132;51.972;4.450;2023-05-14T12:46:52;101779.72;;;18.72;100.00